sensor_id;sensor_type;location;lat;lon;timestamp;pressure;altitude;pressure_sealevel;temperature;humidity
24104;BME280;12278;53.058;9.028;2022-07-18T00:03:18;102219.38;;;15.96;83.71
24104;BME280;12278;53.058;9.028;2022-07-18T00:07:19;102222.16;;;16.13;83.15
24104;BME280;12278;53.058;9.028;2022-07-18T00:11:20;102214.94;;;16.01;82.80
24104;BME280;12278;53.058;9.028;2022-07-18T00:15:21;102205.03;;;15.95;83.42
24104;BME280;12278;53.058;9.028;2022-07-18T00:19:22;102198.84;;;16.07;83.24
24104;BME280;12278;53.058;9.028;2022-07-18T00:23:23;102195.19;;;15.97;83.11
24104;BME280;12278;53.058;9.028;2022-07-18T00:27:24;102201.50;;;16.06;83.31
24104;BME280;12278;53.058;9.028;2022-07-18T00:31:25;102196.03;;;15.92;83.45
24104;BME280;12278;53.058;9.028;2022-07-18T00:35:26;102185.25;;;15.81;82.64
24104;BME280;12278;53.058;9.028;2022-07-18T00:39:27;102188.81;;;15.82;83.90
24104;BME280;12278;53.058;9.028;2022-07-18T00:43:30;102190.63;;;15.86;83.99
24104;BME280;12278;53.058;9.028;2022-07-18T00:47:31;102187.13;;;15.97;83.63
24104;BME280;12278;53.058;9.028;2022-07-18T00:51:32;102191.63;;;15.97;82.47
24104;BME280;12278;53.058;9.028;2022-07-18T00:55:45;102198.69;;;15.84;84.02
24104;BME280;12278;53.058;9.028;2022-07-18T00:59:47;102191.41;;;15.70;85.08
24104;BME280;12278;53.058;9.028;2022-07-18T01:04:17;102183.38;;;15.76;84.72
24104;BME280;12278;53.058;9.028;2022-07-18T01:08:18;102190.38;;;15.55;86.01
24104;BME280;12278;53.058;9.028;2022-07-18T01:12:19;102188.69;;;15.65;86.21
24104;BME280;12278;53.058;9.028;2022-07-18T01:16:21;102194.91;;;15.61;86.64
24104;BME280;12278;53.058;9.028;2022-07-18T01:20:27;102191.22;;;15.48;86.29
24104;BME280;12278;53.058;9.028;2022-07-18T01:24:29;102195.69;;;15.45;87.76
24104;BME280;12278;53.058;9.028;2022-07-18T01:28:30;102193.84;;;15.44;87.36
24104;BME280;12278;53.058;9.028;2022-07-18T01:32:31;102191.13;;;15.41;88.35
24104;BME280;12278;53.058;9.028;2022-07-18T01:36:32;102190.31;;;15.48;87.85
24104;BME280;12278;53.058;9.028;2022-07-18T01:40:34;102174.88;;;15.24;89.02
24104;BME280;12278;53.058;9.028;2022-07-18T01:44:36;102166.88;;;15.30;88.41
24104;BME280;12278;53.058;9.028;2022-07-18T01:48:41;102169.47;;;15.19;89.30
24104;BME280;12278;53.058;9.028;2022-07-18T01:52:42;102165.72;;;15.02;88.85
24104;BME280;12278;53.058;9.028;2022-07-18T01:56:43;102158.56;;;15.02;89.77
24104;BME280;12278;53.058;9.028;2022-07-18T02:00:44;102167.53;;;15.03;89.37
24104;BME280;12278;53.058;9.028;2022-07-18T02:04:45;102171.16;;;15.09;89.81
24104;BME280;12278;53.058;9.028;2022-07-18T02:09:01;102177.47;;;15.12;90.18
24104;BME280;12278;53.058;9.028;2022-07-18T02:13:02;102169.34;;;15.08;89.99
24104;BME280;12278;53.058;9.028;2022-07-18T02:17:03;102171.13;;;15.06;89.82
24104;BME280;12278;53.058;9.028;2022-07-18T02:21:04;102166.72;;;15.10;90.21
24104;BME280;12278;53.058;9.028;2022-07-18T02:25:06;102172.00;;;15.02;90.99
24104;BME280;12278;53.058;9.028;2022-07-18T02:29:07;102167.53;;;15.04;90.58
24104;BME280;12278;53.058;9.028;2022-07-18T02:33:08;102162.00;;;14.88;91.34
24104;BME280;12278;53.058;9.028;2022-07-18T02:37:10;102163.81;;;14.92;91.10
24104;BME280;12278;53.058;9.028;2022-07-18T02:41:11;102168.25;;;14.85;91.89
24104;BME280;12278;53.058;9.028;2022-07-18T02:45:12;102165.50;;;14.81;91.86
24104;BME280;12278;53.058;9.028;2022-07-18T02:49:13;102165.50;;;14.79;91.49
24104;BME280;12278;53.058;9.028;2022-07-18T02:53:27;102170.78;;;14.74;91.95
24104;BME280;12278;53.058;9.028;2022-07-18T02:57:28;102161.81;;;14.71;92.55
24104;BME280;12278;53.058;9.028;2022-07-18T03:01:29;102162.69;;;14.70;93.08
24104;BME280;12278;53.058;9.028;2022-07-18T03:05:30;102144.63;;;14.54;93.19
24104;BME280;12278;53.058;9.028;2022-07-18T03:09:31;102147.03;;;14.34;93.84
24104;BME280;12278;53.058;9.028;2022-07-18T03:13:33;102138.31;;;14.50;93.47
24104;BME280;12278;53.058;9.028;2022-07-18T03:17:34;102130.28;;;14.50;92.86
24104;BME280;12278;53.058;9.028;2022-07-18T03:21:34;102135.66;;;14.53;91.39
24104;BME280;12278;53.058;9.028;2022-07-18T03:25:36;102141.97;;;14.57;91.72
24104;BME280;12278;53.058;9.028;2022-07-18T03:29:37;102139.25;;;14.55;91.76
24104;BME280;12278;53.058;9.028;2022-07-18T03:33:39;102134.09;;;14.75;90.22
24104;BME280;12278;53.058;9.028;2022-07-18T03:37:40;102124.97;;;14.58;89.87
24104;BME280;12278;53.058;9.028;2022-07-18T03:41:42;102136.75;;;14.70;90.60
24104;BME280;12278;53.058;9.028;2022-07-18T03:45:44;102135.94;;;14.77;90.20
24104;BME280;12278;53.058;9.028;2022-07-18T03:49:44;102140.59;;;14.95;89.84
24104;BME280;12278;53.058;9.028;2022-07-18T03:53:45;102143.22;;;14.92;88.53
24104;BME280;12278;53.058;9.028;2022-07-18T03:57:46;102141.66;;;15.14;87.38
24104;BME280;12278;53.058;9.028;2022-07-18T04:01:47;102135.28;;;15.03;88.46
24104;BME280;12278;53.058;9.028;2022-07-18T04:05:49;102144.25;;;15.06;89.01
24104;BME280;12278;53.058;9.028;2022-07-18T04:09:50;102144.19;;;14.97;89.10
24104;BME280;12278;53.058;9.028;2022-07-18T04:13:55;102144.38;;;15.19;87.83
24104;BME280;12278;53.058;9.028;2022-07-18T04:17:56;102148.13;;;15.37;86.64
24104;BME280;12278;53.058;9.028;2022-07-18T04:21:57;102151.78;;;15.47;85.64
24104;BME280;12278;53.058;9.028;2022-07-18T04:25:58;102153.78;;;15.70;85.76
24104;BME280;12278;53.058;9.028;2022-07-18T04:29:59;102143.91;;;15.67;84.53
24104;BME280;12278;53.058;9.028;2022-07-18T04:34:00;102145.78;;;15.82;84.52
24104;BME280;12278;53.058;9.028;2022-07-18T04:38:03;102135.13;;;15.97;83.73
24104;BME280;12278;53.058;9.028;2022-07-18T04:42:04;102141.41;;;16.04;83.30
24104;BME280;12278;53.058;9.028;2022-07-18T04:46:05;102139.63;;;16.09;83.06
24104;BME280;12278;53.058;9.028;2022-07-18T04:50:08;102142.34;;;16.13;83.51
24104;BME280;12278;53.058;9.028;2022-07-18T04:54:09;102137.91;;;16.15;83.59
24104;BME280;12278;53.058;9.028;2022-07-18T04:58:12;102127.06;;;16.08;84.23
24104;BME280;12278;53.058;9.028;2022-07-18T05:02:13;102128.03;;;16.17;83.81
24104;BME280;12278;53.058;9.028;2022-07-18T05:06:14;102130.75;;;16.25;83.40
24104;BME280;12278;53.058;9.028;2022-07-18T05:10:17;102130.78;;;16.36;82.58
24104;BME280;12278;53.058;9.028;2022-07-18T05:14:18;102136.22;;;16.54;81.83
24104;BME280;12278;53.058;9.028;2022-07-18T05:18:19;102137.13;;;16.59;80.77
24104;BME280;12278;53.058;9.028;2022-07-18T05:22:20;102132.72;;;16.76;80.59
24104;BME280;12278;53.058;9.028;2022-07-18T05:26:21;102118.38;;;16.85;80.10
24104;BME280;12278;53.058;9.028;2022-07-18T05:30:22;102122.88;;;17.04;79.44
24104;BME280;12278;53.058;9.028;2022-07-18T05:34:23;102119.28;;;17.40;78.65
24104;BME280;12278;53.058;9.028;2022-07-18T05:38:24;102126.41;;;17.66;76.88
24104;BME280;12278;53.058;9.028;2022-07-18T05:42:25;102130.03;;;17.75;76.06
24104;BME280;12278;53.058;9.028;2022-07-18T05:46:26;102124.63;;;17.83;75.52
24104;BME280;12278;53.058;9.028;2022-07-18T05:50:27;102129.94;;;18.04;75.73
24104;BME280;12278;53.058;9.028;2022-07-18T05:54:28;102125.41;;;18.16;74.81
24104;BME280;12278;53.058;9.028;2022-07-18T05:58:29;102121.78;;;18.26;74.25
24104;BME280;12278;53.058;9.028;2022-07-18T06:02:31;102120.00;;;18.23;74.45
24104;BME280;12278;53.058;9.028;2022-07-18T06:06:32;102118.94;;;18.49;74.92
24104;BME280;12278;53.058;9.028;2022-07-18T06:10:33;102124.28;;;18.62;72.60
24104;BME280;12278;53.058;9.028;2022-07-18T06:14:34;102124.28;;;18.67;71.99
24104;BME280;12278;53.058;9.028;2022-07-18T06:18:35;102122.34;;;18.87;71.53
24104;BME280;12278;53.058;9.028;2022-07-18T06:22:36;102128.72;;;18.80;70.88
24104;BME280;12278;53.058;9.028;2022-07-18T06:26:37;102129.50;;;18.97;71.82
24104;BME280;12278;53.058;9.028;2022-07-18T06:30:38;102116.84;;;19.01;70.90
24104;BME280;12278;53.058;9.028;2022-07-18T06:34:39;102117.69;;;19.05;70.41
24104;BME280;12278;53.058;9.028;2022-07-18T06:38:40;102120.31;;;19.18;70.49
24104;BME280;12278;53.058;9.028;2022-07-18T06:42:41;102126.56;;;19.23;70.82
24104;BME280;12278;53.058;9.028;2022-07-18T06:46:42;102112.19;;;19.18;70.56
24104;BME280;12278;53.058;9.028;2022-07-18T06:50:43;102119.03;;;19.62;70.52
24104;BME280;12278;53.058;9.028;2022-07-18T06:54:44;102111.50;;;19.90;68.53
24104;BME280;12278;53.058;9.028;2022-07-18T06:58:44;102112.25;;;20.03;67.39
24104;BME280;12278;53.058;9.028;2022-07-18T07:02:50;102111.06;;;20.25;66.66
24104;BME280;12278;53.058;9.028;2022-07-18T07:06:51;102106.19;;;20.55;67.17
24104;BME280;12278;53.058;9.028;2022-07-18T07:10:52;102109.13;;;20.98;65.12
24104;BME280;12278;53.058;9.028;2022-07-18T07:14:52;102104.75;;;21.43;64.33
24104;BME280;12278;53.058;9.028;2022-07-18T07:18:54;102103.66;;;22.00;63.79
24104;BME280;12278;53.058;9.028;2022-07-18T07:22:57;102100.69;;;22.13;61.34
24104;BME280;12278;53.058;9.028;2022-07-18T07:26:58;102109.28;;;22.35;62.04
24104;BME280;12278;53.058;9.028;2022-07-18T07:30:59;102107.88;;;22.58;60.72
24104;BME280;12278;53.058;9.028;2022-07-18T07:35:00;102102.25;;;22.65;60.31
24104;BME280;12278;53.058;9.028;2022-07-18T07:39:02;102101.78;;;22.86;58.31
24104;BME280;12278;53.058;9.028;2022-07-18T07:43:10;102098.97;;;22.91;59.13
24104;BME280;12278;53.058;9.028;2022-07-18T07:47:12;102091.25;;;23.10;56.45
24104;BME280;12278;53.058;9.028;2022-07-18T07:51:13;102105.84;;;23.40;56.07
24104;BME280;12278;53.058;9.028;2022-07-18T07:55:14;102114.50;;;23.90;56.87
24104;BME280;12278;53.058;9.028;2022-07-18T07:59:15;102102.75;;;24.19;54.94
24104;BME280;12278;53.058;9.028;2022-07-18T08:03:16;102098.94;;;23.28;53.71
24104;BME280;12278;53.058;9.028;2022-07-18T08:07:17;102103.59;;;23.57;55.40
24104;BME280;12278;53.058;9.028;2022-07-18T08:11:18;102097.00;;;23.98;54.06
24104;BME280;12278;53.058;9.028;2022-07-18T08:15:19;102097.38;;;24.48;53.71
24104;BME280;12278;53.058;9.028;2022-07-18T08:19:20;102092.28;;;24.92;52.03
24104;BME280;12278;53.058;9.028;2022-07-18T08:23:21;102084.59;;;25.06;51.19
24104;BME280;12278;53.058;9.028;2022-07-18T08:27:25;102075.00;;;24.65;49.42
24104;BME280;12278;53.058;9.028;2022-07-18T08:31:25;102073.94;;;24.97;51.78
24104;BME280;12278;53.058;9.028;2022-07-18T08:35:29;102068.69;;;25.19;47.75
24104;BME280;12278;53.058;9.028;2022-07-18T08:39:30;102068.94;;;25.63;47.60
24104;BME280;12278;53.058;9.028;2022-07-18T08:43:30;102048.94;;;25.11;47.42
24104;BME280;12278;53.058;9.028;2022-07-18T08:47:32;102064.41;;;25.37;49.20
24104;BME280;12278;53.058;9.028;2022-07-18T08:51:37;102066.38;;;25.58;48.14
24104;BME280;12278;53.058;9.028;2022-07-18T08:55:39;102063.59;;;25.60;46.31
24104;BME280;12278;53.058;9.028;2022-07-18T08:59:40;102053.22;;;25.44;49.06
24104;BME280;12278;53.058;9.028;2022-07-18T09:03:41;102055.44;;;25.58;44.59
24104;BME280;12278;53.058;9.028;2022-07-18T09:07:42;102058.75;;;25.93;46.32
24104;BME280;12278;53.058;9.028;2022-07-18T09:12:06;102066.56;;;26.02;44.86
24104;BME280;12278;53.058;9.028;2022-07-18T09:16:11;102058.50;;;25.99;45.99
24104;BME280;12278;53.058;9.028;2022-07-18T09:20:13;102066.69;;;25.99;47.10
24104;BME280;12278;53.058;9.028;2022-07-18T09:24:17;102053.97;;;25.98;46.24
24104;BME280;12278;53.058;9.028;2022-07-18T09:28:18;102046.03;;;26.15;46.15
24104;BME280;12278;53.058;9.028;2022-07-18T09:32:22;102045.19;;;26.36;45.89
24104;BME280;12278;53.058;9.028;2022-07-18T09:36:25;102051.88;;;26.74;45.70
24104;BME280;12278;53.058;9.028;2022-07-18T09:44:30;102036.78;;;27.89;43.00
24104;BME280;12278;53.058;9.028;2022-07-18T09:48:31;102036.19;;;27.62;41.99
24104;BME280;12278;53.058;9.028;2022-07-18T09:52:33;102027.88;;;26.81;42.83
24104;BME280;12278;53.058;9.028;2022-07-18T09:56:36;102028.97;;;26.77;42.46
24104;BME280;12278;53.058;9.028;2022-07-18T10:00:41;102027.13;;;26.56;42.19
24104;BME280;12278;53.058;9.028;2022-07-18T10:04:44;102023.09;;;26.64;44.28
24104;BME280;12278;53.058;9.028;2022-07-18T10:08:45;102024.78;;;26.89;44.08
24104;BME280;12278;53.058;9.028;2022-07-18T10:12:46;102021.28;;;27.07;43.20
24104;BME280;12278;53.058;9.028;2022-07-18T10:16:46;102029.78;;;27.63;42.62
24104;BME280;12278;53.058;9.028;2022-07-18T10:21:04;102027.41;;;27.95;42.10
24104;BME280;12278;53.058;9.028;2022-07-18T10:25:06;102021.22;;;28.09;39.39
24104;BME280;12278;53.058;9.028;2022-07-18T10:29:15;102020.56;;;28.04;38.45
24104;BME280;12278;53.058;9.028;2022-07-18T10:37:40;102037.00;;;28.98;41.89
24104;BME280;12278;53.058;9.028;2022-07-18T10:45:45;102008.22;;;28.14;36.40
24104;BME280;12278;53.058;9.028;2022-07-18T10:53:57;102004.28;;;28.19;37.96
24104;BME280;12278;53.058;9.028;2022-07-18T11:01:58;102014.44;;;28.55;36.18
24104;BME280;12278;53.058;9.028;2022-07-18T11:05:59;102009.38;;;28.46;35.97
24104;BME280;12278;53.058;9.028;2022-07-18T11:10:00;102012.38;;;28.77;37.53
24104;BME280;12278;53.058;9.028;2022-07-18T11:14:01;102003.56;;;29.41;35.28
24104;BME280;12278;53.058;9.028;2022-07-18T11:18:04;102004.69;;;30.05;34.68
24104;BME280;12278;53.058;9.028;2022-07-18T11:22:05;101979.22;;;29.68;33.46
24104;BME280;12278;53.058;9.028;2022-07-18T11:26:16;101986.16;;;30.09;34.69
24104;BME280;12278;53.058;9.028;2022-07-18T11:30:19;101977.47;;;30.32;33.99
24104;BME280;12278;53.058;9.028;2022-07-18T11:34:23;101982.00;;;30.65;35.59
24104;BME280;12278;53.058;9.028;2022-07-18T11:38:24;101974.59;;;30.81;34.77
24104;BME280;12278;53.058;9.028;2022-07-18T11:42:38;101961.66;;;30.20;33.30
24104;BME280;12278;53.058;9.028;2022-07-18T11:46:39;101960.56;;;30.54;34.26
24104;BME280;12278;53.058;9.028;2022-07-18T11:50:40;101945.56;;;29.96;33.02
24104;BME280;12278;53.058;9.028;2022-07-18T11:54:41;101958.28;;;30.46;34.50
24104;BME280;12278;53.058;9.028;2022-07-18T11:58:44;101947.09;;;30.49;32.80
24104;BME280;12278;53.058;9.028;2022-07-18T12:03:12;101954.47;;;30.65;34.26
24104;BME280;12278;53.058;9.028;2022-07-18T12:07:25;101940.09;;;30.44;32.45
24104;BME280;12278;53.058;9.028;2022-07-18T12:11:34;101933.94;;;30.54;32.65
24104;BME280;12278;53.058;9.028;2022-07-18T12:15:40;101935.56;;;30.88;32.33
24104;BME280;12278;53.058;9.028;2022-07-18T12:19:41;101947.91;;;31.70;32.48
24104;BME280;12278;53.058;9.028;2022-07-18T12:23:44;101926.94;;;31.67;31.27
24104;BME280;12278;53.058;9.028;2022-07-18T12:27:45;101928.44;;;31.44;32.25
24104;BME280;12278;53.058;9.028;2022-07-18T12:31:46;101924.22;;;31.09;32.15
24104;BME280;12278;53.058;9.028;2022-07-18T12:35:56;101921.19;;;30.83;31.85
24104;BME280;12278;53.058;9.028;2022-07-18T12:40:00;101923.03;;;30.37;33.28
24104;BME280;12278;53.058;9.028;2022-07-18T12:44:01;101918.69;;;30.65;34.55
24104;BME280;12278;53.058;9.028;2022-07-18T12:48:04;101904.75;;;30.36;32.08
24104;BME280;12278;53.058;9.028;2022-07-18T12:52:06;101916.19;;;30.60;33.36
24104;BME280;12278;53.058;9.028;2022-07-18T12:56:07;101914.03;;;30.81;34.10
24104;BME280;12278;53.058;9.028;2022-07-18T13:00:09;101913.66;;;31.01;33.84
24104;BME280;12278;53.058;9.028;2022-07-18T13:04:11;101896.84;;;30.92;34.07
24104;BME280;12278;53.058;9.028;2022-07-18T13:08:12;101901.38;;;30.47;32.84
24104;BME280;12278;53.058;9.028;2022-07-18T13:12:13;101905.00;;;31.66;33.64
24104;BME280;12278;53.058;9.028;2022-07-18T13:16:14;101917.44;;;32.55;32.09
24104;BME280;12278;53.058;9.028;2022-07-18T13:20:16;101895.66;;;32.51;29.84
24104;BME280;12278;53.058;9.028;2022-07-18T13:24:17;101885.00;;;32.32;33.41
24104;BME280;12278;53.058;9.028;2022-07-18T13:28:17;101890.50;;;33.49;31.50
24104;BME280;12278;53.058;9.028;2022-07-18T13:32:18;101877.78;;;32.96;30.57
24104;BME280;12278;53.058;9.028;2022-07-18T13:36:20;101866.03;;;32.40;30.67
24104;BME280;12278;53.058;9.028;2022-07-18T13:40:20;101847.09;;;31.66;31.45
24104;BME280;12278;53.058;9.028;2022-07-18T13:44:21;101840.91;;;31.19;32.78
24104;BME280;12278;53.058;9.028;2022-07-18T13:48:22;101826.44;;;30.57;32.09
24104;BME280;12278;53.058;9.028;2022-07-18T13:52:23;101854.00;;;31.73;30.07
24104;BME280;12278;53.058;9.028;2022-07-18T13:56:24;101850.03;;;32.18;31.77
24104;BME280;12278;53.058;9.028;2022-07-18T14:00:25;101853.50;;;33.01;29.94
24104;BME280;12278;53.058;9.028;2022-07-18T14:04:26;101868.69;;;34.20;29.69
24104;BME280;12278;53.058;9.028;2022-07-18T14:08:27;101844.09;;;34.63;29.38
24104;BME280;12278;53.058;9.028;2022-07-18T14:12:28;101843.59;;;34.69;29.36
24104;BME280;12278;53.058;9.028;2022-07-18T14:16:30;101845.03;;;34.74;29.25
24104;BME280;12278;53.058;9.028;2022-07-18T14:20:31;101856.59;;;35.15;30.43
24104;BME280;12278;53.058;9.028;2022-07-18T14:24:32;101832.44;;;34.82;29.98
24104;BME280;12278;53.058;9.028;2022-07-18T14:28:33;101822.66;;;33.20;30.61
24104;BME280;12278;53.058;9.028;2022-07-18T14:32:34;101812.75;;;32.52;32.32
24104;BME280;12278;53.058;9.028;2022-07-18T14:36:35;101797.44;;;32.07;32.08
24104;BME280;12278;53.058;9.028;2022-07-18T14:40:36;101815.34;;;33.06;31.05
24104;BME280;12278;53.058;9.028;2022-07-18T14:44:36;101827.38;;;35.11;30.48
24104;BME280;12278;53.058;9.028;2022-07-18T14:48:37;101799.72;;;33.56;31.29
24104;BME280;12278;53.058;9.028;2022-07-18T14:52:38;101800.22;;;33.74;29.74
24104;BME280;12278;53.058;9.028;2022-07-18T14:56:39;101807.09;;;34.05;29.59
24104;BME280;12278;53.058;9.028;2022-07-18T15:00:40;101807.94;;;34.29;29.79
24104;BME280;12278;53.058;9.028;2022-07-18T15:04:42;101781.59;;;32.50;31.66
24104;BME280;12278;53.058;9.028;2022-07-18T15:08:43;101775.19;;;31.69;32.90
24104;BME280;12278;53.058;9.028;2022-07-18T15:12:44;101774.53;;;31.24;33.59
24104;BME280;12278;53.058;9.028;2022-07-18T15:16:45;101787.31;;;31.66;33.83
24104;BME280;12278;53.058;9.028;2022-07-18T15:20:47;101782.69;;;31.81;33.28
24104;BME280;12278;53.058;9.028;2022-07-18T15:24:48;101784.88;;;32.30;33.04
24104;BME280;12278;53.058;9.028;2022-07-18T15:28:48;101806.53;;;33.01;33.88
24104;BME280;12278;53.058;9.028;2022-07-18T15:32:49;101802.81;;;34.71;29.73
24104;BME280;12278;53.058;9.028;2022-07-18T15:36:51;101800.13;;;35.94;29.65
24104;BME280;12278;53.058;9.028;2022-07-18T15:40:52;101800.94;;;37.21;28.15
24104;BME280;12278;53.058;9.028;2022-07-18T15:44:52;101791.75;;;38.40;25.91
24104;BME280;12278;53.058;9.028;2022-07-18T15:48:54;101808.19;;;40.28;25.29
24104;BME280;12278;53.058;9.028;2022-07-18T15:52:55;101810.16;;;42.00;24.52
24104;BME280;12278;53.058;9.028;2022-07-18T15:56:56;101795.16;;;41.59;24.95
24104;BME280;12278;53.058;9.028;2022-07-18T16:00:58;101769.97;;;40.29;24.57
24104;BME280;12278;53.058;9.028;2022-07-18T16:04:59;101758.88;;;39.19;25.39
24104;BME280;12278;53.058;9.028;2022-07-18T16:09:00;101773.78;;;40.10;25.87
24104;BME280;12278;53.058;9.028;2022-07-18T16:13:01;101744.84;;;39.84;25.32
24104;BME280;12278;53.058;9.028;2022-07-18T16:17:02;101734.53;;;38.65;25.46
24104;BME280;12278;53.058;9.028;2022-07-18T16:21:03;101724.63;;;38.23;25.81
24104;BME280;12278;53.058;9.028;2022-07-18T16:25:04;101723.31;;;37.49;27.62
24104;BME280;12278;53.058;9.028;2022-07-18T16:29:06;101729.16;;;38.24;26.29
24104;BME280;12278;53.058;9.028;2022-07-18T16:33:06;101730.25;;;38.80;26.91
24104;BME280;12278;53.058;9.028;2022-07-18T16:37:07;101713.47;;;37.94;27.33
24104;BME280;12278;53.058;9.028;2022-07-18T16:41:09;101704.75;;;37.09;27.41
24104;BME280;12278;53.058;9.028;2022-07-18T16:45:10;101694.16;;;36.10;28.87
24104;BME280;12278;53.058;9.028;2022-07-18T16:49:12;101710.41;;;36.46;28.74
24104;BME280;12278;53.058;9.028;2022-07-18T16:53:13;101695.94;;;35.79;29.21
24104;BME280;12278;53.058;9.028;2022-07-18T16:57:14;101676.41;;;34.12;29.88
24104;BME280;12278;53.058;9.028;2022-07-18T17:01:15;101667.63;;;32.74;32.81
24104;BME280;12278;53.058;9.028;2022-07-18T17:05:16;101659.09;;;32.26;31.85
24104;BME280;12278;53.058;9.028;2022-07-18T17:09:18;101659.13;;;31.73;33.20
24104;BME280;12278;53.058;9.028;2022-07-18T17:13:20;101646.00;;;31.50;33.00
24104;BME280;12278;53.058;9.028;2022-07-18T17:17:22;101651.22;;;31.28;34.00
24104;BME280;12278;53.058;9.028;2022-07-18T17:21:24;101652.13;;;31.00;36.17
24104;BME280;12278;53.058;9.028;2022-07-18T17:25:26;101651.78;;;30.77;36.29
24104;BME280;12278;53.058;9.028;2022-07-18T17:29:28;101646.50;;;30.16;39.13
24104;BME280;12278;53.058;9.028;2022-07-18T17:33:29;101651.81;;;29.89;39.33
24104;BME280;12278;53.058;9.028;2022-07-18T17:37:31;101645.72;;;29.38;41.04
24104;BME280;12278;53.058;9.028;2022-07-18T17:41:33;101641.72;;;29.12;42.09
24104;BME280;12278;53.058;9.028;2022-07-18T17:45:34;101650.25;;;29.07;41.26
24104;BME280;12278;53.058;9.028;2022-07-18T17:49:35;101638.69;;;28.85;42.24
24104;BME280;12278;53.058;9.028;2022-07-18T17:53:36;101642.31;;;28.70;44.02
24104;BME280;12278;53.058;9.028;2022-07-18T17:57:38;101645.53;;;28.61;44.62
24104;BME280;12278;53.058;9.028;2022-07-18T18:01:39;101634.53;;;28.45;44.44
24104;BME280;12278;53.058;9.028;2022-07-18T18:05:41;101633.91;;;28.22;44.49
24104;BME280;12278;53.058;9.028;2022-07-18T18:09:42;101627.34;;;27.92;44.42
24104;BME280;12278;53.058;9.028;2022-07-18T18:13:43;101631.13;;;27.72;45.97
24104;BME280;12278;53.058;9.028;2022-07-18T18:17:44;101625.69;;;27.53;46.42
24104;BME280;12278;53.058;9.028;2022-07-18T18:21:45;101632.63;;;27.43;46.80
24104;BME280;12278;53.058;9.028;2022-07-18T18:25:46;101626.00;;;27.30;46.76
24104;BME280;12278;53.058;9.028;2022-07-18T18:29:46;101625.13;;;27.11;46.78
24104;BME280;12278;53.058;9.028;2022-07-18T18:33:47;101619.88;;;27.06;48.05
24104;BME280;12278;53.058;9.028;2022-07-18T18:37:48;101623.03;;;26.97;49.45
24104;BME280;12278;53.058;9.028;2022-07-18T18:41:51;101625.13;;;26.73;49.88
24104;BME280;12278;53.058;9.028;2022-07-18T18:45:53;101637.22;;;26.49;51.33
24104;BME280;12278;53.058;9.028;2022-07-18T18:49:53;101637.22;;;26.28;51.78
24104;BME280;12278;53.058;9.028;2022-07-18T18:53:54;101639.47;;;26.19;53.00
24104;BME280;12278;53.058;9.028;2022-07-18T18:57:55;101634.03;;;25.98;54.29
24104;BME280;12278;53.058;9.028;2022-07-18T19:01:56;101633.81;;;25.82;55.12
24104;BME280;12278;53.058;9.028;2022-07-18T19:05:57;101635.00;;;25.55;55.67
24104;BME280;12278;53.058;9.028;2022-07-18T19:09:58;101634.13;;;25.54;55.78
24104;BME280;12278;53.058;9.028;2022-07-18T19:13:59;101636.50;;;25.62;55.70
24104;BME280;12278;53.058;9.028;2022-07-18T19:18:01;101643.13;;;25.57;56.17
24104;BME280;12278;53.058;9.028;2022-07-18T19:22:02;101636.75;;;25.36;56.49
24104;BME280;12278;53.058;9.028;2022-07-18T19:26:03;101642.50;;;25.06;57.26
24104;BME280;12278;53.058;9.028;2022-07-18T19:30:05;101642.28;;;24.89;58.40
24104;BME280;12278;53.058;9.028;2022-07-18T19:34:06;101651.34;;;24.89;59.29
24104;BME280;12278;53.058;9.028;2022-07-18T19:38:07;101650.88;;;24.78;60.44
24104;BME280;12278;53.058;9.028;2022-07-18T19:42:08;101660.53;;;24.63;59.74
24104;BME280;12278;53.058;9.028;2022-07-18T19:46:09;101655.03;;;24.42;59.95
24104;BME280;12278;53.058;9.028;2022-07-18T19:50:10;101645.00;;;24.17;61.99
24104;BME280;12278;53.058;9.028;2022-07-18T19:54:11;101660.09;;;24.02;62.53
24104;BME280;12278;53.058;9.028;2022-07-18T19:58:12;101666.13;;;23.86;63.40
24104;BME280;12278;53.058;9.028;2022-07-18T20:02:13;101666.34;;;23.80;64.51
24104;BME280;12278;53.058;9.028;2022-07-18T20:06:14;101659.66;;;23.63;64.93
24104;BME280;12278;53.058;9.028;2022-07-18T20:10:15;101662.22;;;23.40;65.31
24104;BME280;12278;53.058;9.028;2022-07-18T20:14:16;101668.03;;;23.29;66.98
24104;BME280;12278;53.058;9.028;2022-07-18T20:18:17;101656.09;;;23.05;66.84
24104;BME280;12278;53.058;9.028;2022-07-18T20:22:18;101660.06;;;22.95;68.42
24104;BME280;12278;53.058;9.028;2022-07-18T20:26:19;101660.56;;;22.78;68.45
24104;BME280;12278;53.058;9.028;2022-07-18T20:30:20;101654.59;;;22.66;68.86
24104;BME280;12278;53.058;9.028;2022-07-18T20:34:21;101660.31;;;22.56;69.41
24104;BME280;12278;53.058;9.028;2022-07-18T20:38:22;101660.63;;;22.46;69.25
24104;BME280;12278;53.058;9.028;2022-07-18T20:42:23;101661.91;;;22.33;69.81
24104;BME280;12278;53.058;9.028;2022-07-18T20:46:25;101653.16;;;22.23;70.49
24104;BME280;12278;53.058;9.028;2022-07-18T20:50:27;101662.28;;;22.19;70.98
24104;BME280;12278;53.058;9.028;2022-07-18T20:54:28;101657.19;;;22.08;71.47
24104;BME280;12278;53.058;9.028;2022-07-18T20:58:29;101653.16;;;21.89;71.57
24104;BME280;12278;53.058;9.028;2022-07-18T21:02:30;101661.75;;;21.72;72.53
24104;BME280;12278;53.058;9.028;2022-07-18T21:06:31;101651.88;;;21.70;72.36
24104;BME280;12278;53.058;9.028;2022-07-18T21:10:32;101660.28;;;21.59;72.95
24104;BME280;12278;53.058;9.028;2022-07-18T21:14:33;101666.81;;;21.50;73.24
24104;BME280;12278;53.058;9.028;2022-07-18T21:18:52;101658.97;;;21.40;73.52
24104;BME280;12278;53.058;9.028;2022-07-18T21:22:54;101652.75;;;21.34;73.42
24104;BME280;12278;53.058;9.028;2022-07-18T21:26:55;101652.75;;;21.34;73.67